sensor_id;sensor_type;location;lat;lon;timestamp;temperature;humidity
20726;DHT22;10524;48.132;8.518;2022-08-19T00:01:35;16.20;99.90
20726;DHT22;10524;48.132;8.518;2022-08-19T00:04:04;16.20;99.90
20726;DHT22;10524;48.132;8.518;2022-08-19T00:06:30;16.20;99.90
20726;DHT22;10524;48.132;8.518;2022-08-19T00:08:57;16.20;99.90
20726;DHT22;10524;48.132;8.518;2022-08-19T00:11:23;16.20;99.90
20726;DHT22;10524;48.132;8.518;2022-08-19T00:13:49;16.20;99.90
20726;DHT22;10524;48.132;8.518;2022-08-19T00:16:18;16.20;99.90
20726;DHT22;10524;48.132;8.518;2022-08-19T00:18:44;16.10;99.90
20726;DHT22;10524;48.132;8.518;2022-08-19T00:21:10;16.10;99.90
20726;DHT22;10524;48.132;8.518;2022-08-19T00:23:36;16.10;99.90
20726;DHT22;10524;48.132;8.518;2022-08-19T00:26:06;16.10;99.90
20726;DHT22;10524;48.132;8.518;2022-08-19T00:28:32;16.10;99.90
20726;DHT22;10524;48.132;8.518;2022-08-19T00:30:58;16.10;99.90
20726;DHT22;10524;48.132;8.518;2022-08-19T00:33:24;16.10;99.90
20726;DHT22;10524;48.132;8.518;2022-08-19T00:35:51;16.10;99.90
20726;DHT22;10524;48.132;8.518;2022-08-19T00:38:17;16.10;99.90
20726;DHT22;10524;48.132;8.518;2022-08-19T00:40:43;16.10;99.90
20726;DHT22;10524;48.132;8.518;2022-08-19T00:43:13;16.20;99.90
20726;DHT22;10524;48.132;8.518;2022-08-19T00:45:40;16.20;99.90
20726;DHT22;10524;48.132;8.518;2022-08-19T00:48:10;16.20;99.90
20726;DHT22;10524;48.132;8.518;2022-08-19T00:50:35;16.20;99.90
20726;DHT22;10524;48.132;8.518;2022-08-19T00:53:02;16.20;99.90
20726;DHT22;10524;48.132;8.518;2022-08-19T00:55:30;16.20;99.90
20726;DHT22;10524;48.132;8.518;2022-08-19T00:58:08;16.20;99.90
20726;DHT22;10524;48.132;8.518;2022-08-19T01:00:35;16.20;99.90
20726;DHT22;10524;48.132;8.518;2022-08-19T01:03:09;16.20;99.90
20726;DHT22;10524;48.132;8.518;2022-08-19T01:05:35;16.20;99.90
20726;DHT22;10524;48.132;8.518;2022-08-19T01:08:04;16.20;99.90
20726;DHT22;10524;48.132;8.518;2022-08-19T01:10:41;16.10;99.90
20726;DHT22;10524;48.132;8.518;2022-08-19T01:13:08;16.10;99.90
20726;DHT22;10524;48.132;8.518;2022-08-19T01:15:51;16.10;99.90
20726;DHT22;10524;48.132;8.518;2022-08-19T01:18:19;16.10;99.90
20726;DHT22;10524;48.132;8.518;2022-08-19T01:20:46;16.10;99.90
20726;DHT22;10524;48.132;8.518;2022-08-19T01:23:12;16.10;99.90
20726;DHT22;10524;48.132;8.518;2022-08-19T01:25:50;16.10;99.90
20726;DHT22;10524;48.132;8.518;2022-08-19T01:28:23;16.10;99.90
20726;DHT22;10524;48.132;8.518;2022-08-19T01:30:53;16.10;99.90
20726;DHT22;10524;48.132;8.518;2022-08-19T01:33:20;16.10;99.90
20726;DHT22;10524;48.132;8.518;2022-08-19T01:35:47;16.10;99.90
20726;DHT22;10524;48.132;8.518;2022-08-19T01:38:24;16.10;99.90
20726;DHT22;10524;48.132;8.518;2022-08-19T01:40:50;16.10;99.90
20726;DHT22;10524;48.132;8.518;2022-08-19T01:43:16;16.10;99.90
20726;DHT22;10524;48.132;8.518;2022-08-19T01:45:44;16.10;99.90
20726;DHT22;10524;48.132;8.518;2022-08-19T01:48:10;16.00;99.90
20726;DHT22;10524;48.132;8.518;2022-08-19T01:50:37;16.00;99.90
20726;DHT22;10524;48.132;8.518;2022-08-19T01:53:06;16.00;99.90
20726;DHT22;10524;48.132;8.518;2022-08-19T01:55:34;16.00;99.90
20726;DHT22;10524;48.132;8.518;2022-08-19T01:58:02;16.00;99.90
20726;DHT22;10524;48.132;8.518;2022-08-19T02:00:31;16.00;99.90
20726;DHT22;10524;48.132;8.518;2022-08-19T02:02:58;16.00;99.90
20726;DHT22;10524;48.132;8.518;2022-08-19T02:05:24;16.00;99.90
20726;DHT22;10524;48.132;8.518;2022-08-19T02:07:50;16.00;99.90
20726;DHT22;10524;48.132;8.518;2022-08-19T02:10:21;16.00;99.90
20726;DHT22;10524;48.132;8.518;2022-08-19T02:12:47;16.00;99.90
20726;DHT22;10524;48.132;8.518;2022-08-19T02:15:14;16.00;99.90
20726;DHT22;10524;48.132;8.518;2022-08-19T02:17:40;16.00;99.90
20726;DHT22;10524;48.132;8.518;2022-08-19T02:20:07;16.10;99.90
20726;DHT22;10524;48.132;8.518;2022-08-19T02:22:33;16.00;99.90
20726;DHT22;10524;48.132;8.518;2022-08-19T02:25:00;16.00;99.90
20726;DHT22;10524;48.132;8.518;2022-08-19T02:27:26;16.00;99.90
20726;DHT22;10524;48.132;8.518;2022-08-19T02:29:52;16.00;99.90
20726;DHT22;10524;48.132;8.518;2022-08-19T02:32:18;16.00;99.90
20726;DHT22;10524;48.132;8.518;2022-08-19T02:34:46;16.00;99.90
20726;DHT22;10524;48.132;8.518;2022-08-19T02:37:11;16.00;99.90
20726;DHT22;10524;48.132;8.518;2022-08-19T02:39:57;16.00;99.90
20726;DHT22;10524;48.132;8.518;2022-08-19T02:42:25;16.00;99.90
20726;DHT22;10524;48.132;8.518;2022-08-19T02:44:50;15.90;99.90
20726;DHT22;10524;48.132;8.518;2022-08-19T02:47:17;16.00;99.90
20726;DHT22;10524;48.132;8.518;2022-08-19T02:49:44;16.00;99.90
20726;DHT22;10524;48.132;8.518;2022-08-19T02:52:10;16.00;99.90
20726;DHT22;10524;48.132;8.518;2022-08-19T02:54:37;16.00;99.90
20726;DHT22;10524;48.132;8.518;2022-08-19T02:57:04;16.00;99.90
20726;DHT22;10524;48.132;8.518;2022-08-19T02:59:31;15.90;99.90
20726;DHT22;10524;48.132;8.518;2022-08-19T03:01:57;15.90;99.90
20726;DHT22;10524;48.132;8.518;2022-08-19T03:04:24;15.90;99.90
20726;DHT22;10524;48.132;8.518;2022-08-19T03:06:50;16.00;99.90
20726;DHT22;10524;48.132;8.518;2022-08-19T03:09:16;16.00;99.90
20726;DHT22;10524;48.132;8.518;2022-08-19T03:11:42;15.90;99.90
20726;DHT22;10524;48.132;8.518;2022-08-19T03:14:10;15.90;99.90
20726;DHT22;10524;48.132;8.518;2022-08-19T03:16:45;15.90;99.90
20726;DHT22;10524;48.132;8.518;2022-08-19T03:19:11;15.90;99.90
20726;DHT22;10524;48.132;8.518;2022-08-19T03:21:37;15.90;99.90
20726;DHT22;10524;48.132;8.518;2022-08-19T03:24:06;15.90;99.90
20726;DHT22;10524;48.132;8.518;2022-08-19T03:26:33;15.90;99.90
20726;DHT22;10524;48.132;8.518;2022-08-19T03:29:04;15.90;99.90
20726;DHT22;10524;48.132;8.518;2022-08-19T03:31:29;15.90;99.90
20726;DHT22;10524;48.132;8.518;2022-08-19T03:33:56;15.90;99.90
20726;DHT22;10524;48.132;8.518;2022-08-19T03:36:25;15.90;99.90
20726;DHT22;10524;48.132;8.518;2022-08-19T03:38:57;15.90;99.90
20726;DHT22;10524;48.132;8.518;2022-08-19T03:41:28;15.90;99.90
20726;DHT22;10524;48.132;8.518;2022-08-19T03:43:55;15.90;99.90
20726;DHT22;10524;48.132;8.518;2022-08-19T03:46:24;15.90;99.90
20726;DHT22;10524;48.132;8.518;2022-08-19T03:48:51;15.90;99.90
20726;DHT22;10524;48.132;8.518;2022-08-19T03:51:32;15.90;99.90
20726;DHT22;10524;48.132;8.518;2022-08-19T03:54:00;15.90;99.90
20726;DHT22;10524;48.132;8.518;2022-08-19T03:56:28;15.90;99.90
20726;DHT22;10524;48.132;8.518;2022-08-19T03:58:55;15.90;99.90
20726;DHT22;10524;48.132;8.518;2022-08-19T04:01:23;15.90;99.90
20726;DHT22;10524;48.132;8.518;2022-08-19T04:03:49;15.90;99.90
20726;DHT22;10524;48.132;8.518;2022-08-19T04:06:17;15.90;99.90
20726;DHT22;10524;48.132;8.518;2022-08-19T04:08:44;15.80;99.90
20726;DHT22;10524;48.132;8.518;2022-08-19T04:11:14;15.80;99.90
20726;DHT22;10524;48.132;8.518;2022-08-19T04:13:41;15.80;99.90
20726;DHT22;10524;48.132;8.518;2022-08-19T04:16:09;15.80;99.90
20726;DHT22;10524;48.132;8.518;2022-08-19T04:18:36;15.80;99.90
20726;DHT22;10524;48.132;8.518;2022-08-19T04:21:04;15.80;99.90
20726;DHT22;10524;48.132;8.518;2022-08-19T04:23:31;15.80;99.90
20726;DHT22;10524;48.132;8.518;2022-08-19T04:25:57;15.80;99.90
20726;DHT22;10524;48.132;8.518;2022-08-19T04:28:23;15.80;99.90
20726;DHT22;10524;48.132;8.518;2022-08-19T04:30:51;15.80;99.90
20726;DHT22;10524;48.132;8.518;2022-08-19T04:33:22;15.80;99.90
20726;DHT22;10524;48.132;8.518;2022-08-19T04:35:50;15.80;99.90
20726;DHT22;10524;48.132;8.518;2022-08-19T04:38:18;15.80;99.90
20726;DHT22;10524;48.132;8.518;2022-08-19T04:40:46;15.70;99.90
20726;DHT22;10524;48.132;8.518;2022-08-19T04:43:32;15.80;99.90
20726;DHT22;10524;48.132;8.518;2022-08-19T04:45:58;15.70;99.90
20726;DHT22;10524;48.132;8.518;2022-08-19T04:48:24;15.70;99.90
20726;DHT22;10524;48.132;8.518;2022-08-19T04:50:54;15.70;99.90
20726;DHT22;10524;48.132;8.518;2022-08-19T04:53:27;15.70;99.90
20726;DHT22;10524;48.132;8.518;2022-08-19T04:55:58;15.70;99.90
20726;DHT22;10524;48.132;8.518;2022-08-19T04:58:26;15.70;99.90
20726;DHT22;10524;48.132;8.518;2022-08-19T05:00:53;15.70;99.90
20726;DHT22;10524;48.132;8.518;2022-08-19T05:03:19;15.70;99.90
20726;DHT22;10524;48.132;8.518;2022-08-19T05:05:46;15.70;99.90
20726;DHT22;10524;48.132;8.518;2022-08-19T05:08:19;15.70;99.90
20726;DHT22;10524;48.132;8.518;2022-08-19T05:10:47;15.70;99.90
20726;DHT22;10524;48.132;8.518;2022-08-19T05:13:15;15.70;99.90
20726;DHT22;10524;48.132;8.518;2022-08-19T05:15:41;15.70;99.90
20726;DHT22;10524;48.132;8.518;2022-08-19T05:18:07;15.80;99.90
20726;DHT22;10524;48.132;8.518;2022-08-19T05:20:51;15.80;99.90
20726;DHT22;10524;48.132;8.518;2022-08-19T05:23:35;15.80;99.90
20726;DHT22;10524;48.132;8.518;2022-08-19T05:26:01;15.80;99.90
20726;DHT22;10524;48.132;8.518;2022-08-19T05:28:27;15.80;99.90
20726;DHT22;10524;48.132;8.518;2022-08-19T05:30:53;15.80;99.90
20726;DHT22;10524;48.132;8.518;2022-08-19T05:33:21;15.80;99.90
20726;DHT22;10524;48.132;8.518;2022-08-19T05:35:48;15.90;99.90
20726;DHT22;10524;48.132;8.518;2022-08-19T05:38:16;15.90;99.90
20726;DHT22;10524;48.132;8.518;2022-08-19T05:40:43;15.90;99.90
20726;DHT22;10524;48.132;8.518;2022-08-19T05:43:12;15.90;99.90
20726;DHT22;10524;48.132;8.518;2022-08-19T05:45:41;15.90;99.90
20726;DHT22;10524;48.132;8.518;2022-08-19T05:48:08;15.90;99.90
20726;DHT22;10524;48.132;8.518;2022-08-19T05:50:37;15.90;99.90
20726;DHT22;10524;48.132;8.518;2022-08-19T05:53:04;16.00;99.90
20726;DHT22;10524;48.132;8.518;2022-08-19T05:55:30;16.00;99.90
20726;DHT22;10524;48.132;8.518;2022-08-19T05:57:56;16.00;99.90
20726;DHT22;10524;48.132;8.518;2022-08-19T06:00:22;16.00;99.90
20726;DHT22;10524;48.132;8.518;2022-08-19T06:02:48;16.00;99.90
20726;DHT22;10524;48.132;8.518;2022-08-19T06:05:14;16.10;99.90
20726;DHT22;10524;48.132;8.518;2022-08-19T06:07:40;16.10;99.90
20726;DHT22;10524;48.132;8.518;2022-08-19T06:10:08;16.10;99.90
20726;DHT22;10524;48.132;8.518;2022-08-19T06:12:35;16.20;99.90
20726;DHT22;10524;48.132;8.518;2022-08-19T06:15:04;16.20;99.90
20726;DHT22;10524;48.132;8.518;2022-08-19T06:17:30;16.20;99.90
20726;DHT22;10524;48.132;8.518;2022-08-19T06:19:56;16.20;99.90
20726;DHT22;10524;48.132;8.518;2022-08-19T06:22:22;16.10;99.90
20726;DHT22;10524;48.132;8.518;2022-08-19T06:24:48;16.10;99.90
20726;DHT22;10524;48.132;8.518;2022-08-19T06:27:18;16.00;99.90
20726;DHT22;10524;48.132;8.518;2022-08-19T06:29:44;16.10;99.90
20726;DHT22;10524;48.132;8.518;2022-08-19T06:32:14;16.10;99.90
20726;DHT22;10524;48.132;8.518;2022-08-19T06:34:40;16.10;99.90
20726;DHT22;10524;48.132;8.518;2022-08-19T06:37:07;16.10;99.90
20726;DHT22;10524;48.132;8.518;2022-08-19T06:39:35;16.10;99.90
20726;DHT22;10524;48.132;8.518;2022-08-19T06:42:03;16.20;99.90
20726;DHT22;10524;48.132;8.518;2022-08-19T06:44:33;16.20;99.90
20726;DHT22;10524;48.132;8.518;2022-08-19T06:47:02;16.20;99.90
20726;DHT22;10524;48.132;8.518;2022-08-19T06:49:28;16.30;99.90
20726;DHT22;10524;48.132;8.518;2022-08-19T06:51:57;16.30;99.90
20726;DHT22;10524;48.132;8.518;2022-08-19T06:54:23;16.40;99.90
20726;DHT22;10524;48.132;8.518;2022-08-19T06:56:51;16.50;99.90
20726;DHT22;10524;48.132;8.518;2022-08-19T06:59:22;16.70;99.90
20726;DHT22;10524;48.132;8.518;2022-08-19T07:01:54;16.70;99.90
20726;DHT22;10524;48.132;8.518;2022-08-19T07:04:22;16.80;99.90
20726;DHT22;10524;48.132;8.518;2022-08-19T07:06:49;16.90;99.90
20726;DHT22;10524;48.132;8.518;2022-08-19T07:09:17;17.20;99.90
20726;DHT22;10524;48.132;8.518;2022-08-19T07:11:48;17.20;99.90
20726;DHT22;10524;48.132;8.518;2022-08-19T07:14:16;17.20;99.90
20726;DHT22;10524;48.132;8.518;2022-08-19T07:16:43;17.30;99.90
20726;DHT22;10524;48.132;8.518;2022-08-19T07:19:13;17.40;99.90
20726;DHT22;10524;48.132;8.518;2022-08-19T07:21:38;17.50;99.90
20726;DHT22;10524;48.132;8.518;2022-08-19T07:24:04;17.60;99.90
20726;DHT22;10524;48.132;8.518;2022-08-19T07:26:32;17.70;99.90
20726;DHT22;10524;48.132;8.518;2022-08-19T07:28:58;17.90;99.90
20726;DHT22;10524;48.132;8.518;2022-08-19T07:31:27;17.90;99.90
20726;DHT22;10524;48.132;8.518;2022-08-19T07:33:54;17.90;99.90
20726;DHT22;10524;48.132;8.518;2022-08-19T07:36:26;18.10;99.90
20726;DHT22;10524;48.132;8.518;2022-08-19T07:38:56;18.20;99.90
20726;DHT22;10524;48.132;8.518;2022-08-19T07:41:24;18.40;99.90
20726;DHT22;10524;48.132;8.518;2022-08-19T07:43:50;18.60;99.90
20726;DHT22;10524;48.132;8.518;2022-08-19T07:46:17;18.80;99.90
20726;DHT22;10524;48.132;8.518;2022-08-19T07:48:46;19.00;99.90
20726;DHT22;10524;48.132;8.518;2022-08-19T07:51:13;19.20;99.90
20726;DHT22;10524;48.132;8.518;2022-08-19T07:53:39;19.30;99.90
20726;DHT22;10524;48.132;8.518;2022-08-19T07:56:05;19.40;99.90
20726;DHT22;10524;48.132;8.518;2022-08-19T07:58:40;19.50;99.90
20726;DHT22;10524;48.132;8.518;2022-08-19T08:01:07;19.40;99.90
20726;DHT22;10524;48.132;8.518;2022-08-19T08:03:36;19.20;99.90
20726;DHT22;10524;48.132;8.518;2022-08-19T08:06:20;19.00;99.90
20726;DHT22;10524;48.132;8.518;2022-08-19T08:09:06;18.90;99.90
20726;DHT22;10524;48.132;8.518;2022-08-19T08:11:56;18.70;99.90
20726;DHT22;10524;48.132;8.518;2022-08-19T08:14:31;18.80;99.90
20726;DHT22;10524;48.132;8.518;2022-08-19T08:16:59;18.90;99.90
20726;DHT22;10524;48.132;8.518;2022-08-19T08:19:26;19.10;99.90
20726;DHT22;10524;48.132;8.518;2022-08-19T08:21:55;19.30;99.90
20726;DHT22;10524;48.132;8.518;2022-08-19T08:24:22;19.40;99.90
20726;DHT22;10524;48.132;8.518;2022-08-19T08:26:47;19.60;99.90
20726;DHT22;10524;48.132;8.518;2022-08-19T08:29:14;19.70;99.90
20726;DHT22;10524;48.132;8.518;2022-08-19T08:31:43;20.00;99.90
20726;DHT22;10524;48.132;8.518;2022-08-19T08:34:10;19.90;99.90
20726;DHT22;10524;48.132;8.518;2022-08-19T08:36:37;20.00;99.90
20726;DHT22;10524;48.132;8.518;2022-08-19T08:39:10;20.00;99.90
20726;DHT22;10524;48.132;8.518;2022-08-19T08:47:09;19.70;99.90
20726;DHT22;10524;48.132;8.518;2022-08-19T08:49:48;19.50;99.90
20726;DHT22;10524;48.132;8.518;2022-08-19T08:52:26;19.30;99.90
20726;DHT22;10524;48.132;8.518;2022-08-19T08:54:57;19.30;99.90
20726;DHT22;10524;48.132;8.518;2022-08-19T09:00:02;19.50;99.90
20726;DHT22;10524;48.132;8.518;2022-08-19T09:02:30;19.40;99.90
20726;DHT22;10524;48.132;8.518;2022-08-19T09:04:56;19.20;99.90
20726;DHT22;10524;48.132;8.518;2022-08-19T09:07:25;19.10;99.90
20726;DHT22;10524;48.132;8.518;2022-08-19T09:09:56;19.10;99.90
20726;DHT22;10524;48.132;8.518;2022-08-19T09:12:45;19.10;99.90
20726;DHT22;10524;48.132;8.518;2022-08-19T09:15:15;19.10;99.90
20726;DHT22;10524;48.132;8.518;2022-08-19T09:17:43;19.20;99.90
20726;DHT22;10524;48.132;8.518;2022-08-19T09:22:40;19.20;99.90
20726;DHT22;10524;48.132;8.518;2022-08-19T09:25:11;19.10;99.90
20726;DHT22;10524;48.132;8.518;2022-08-19T09:27:38;19.20;99.90
20726;DHT22;10524;48.132;8.518;2022-08-19T09:30:05;19.10;99.90
20726;DHT22;10524;48.132;8.518;2022-08-19T09:32:33;19.10;99.90
20726;DHT22;10524;48.132;8.518;2022-08-19T09:34:58;19.10;99.90
20726;DHT22;10524;48.132;8.518;2022-08-19T09:37:26;19.10;99.90
20726;DHT22;10524;48.132;8.518;2022-08-19T09:39:52;19.10;99.90
20726;DHT22;10524;48.132;8.518;2022-08-19T09:42:18;18.90;99.90
20726;DHT22;10524;48.132;8.518;2022-08-19T09:44:44;18.90;99.90
20726;DHT22;10524;48.132;8.518;2022-08-19T09:47:11;18.80;99.90
20726;DHT22;10524;48.132;8.518;2022-08-19T09:49:37;18.60;99.90
20726;DHT22;10524;48.132;8.518;2022-08-19T09:52:05;18.40;99.90
20726;DHT22;10524;48.132;8.518;2022-08-19T09:54:31;18.30;99.90
20726;DHT22;10524;48.132;8.518;2022-08-19T09:57:00;18.30;99.90
20726;DHT22;10524;48.132;8.518;2022-08-19T09:59:26;18.20;99.90
20726;DHT22;10524;48.132;8.518;2022-08-19T10:01:52;18.10;99.90
20726;DHT22;10524;48.132;8.518;2022-08-19T10:04:18;18.20;99.90
20726;DHT22;10524;48.132;8.518;2022-08-19T10:06:47;18.40;99.90
20726;DHT22;10524;48.132;8.518;2022-08-19T10:09:16;18.40;99.90
20726;DHT22;10524;48.132;8.518;2022-08-19T10:11:43;18.30;99.90
20726;DHT22;10524;48.132;8.518;2022-08-19T10:14:09;18.40;99.90
20726;DHT22;10524;48.132;8.518;2022-08-19T10:16:36;18.30;99.90
20726;DHT22;10524;48.132;8.518;2022-08-19T10:19:04;18.30;99.90
20726;DHT22;10524;48.132;8.518;2022-08-19T10:21:32;18.40;99.90
20726;DHT22;10524;48.132;8.518;2022-08-19T10:24:01;18.60;99.90
20726;DHT22;10524;48.132;8.518;2022-08-19T10:26:34;18.60;99.90
20726;DHT22;10524;48.132;8.518;2022-08-19T10:29:02;18.90;99.90
20726;DHT22;10524;48.132;8.518;2022-08-19T10:31:32;19.20;99.90
20726;DHT22;10524;48.132;8.518;2022-08-19T10:33:58;19.30;99.90
20726;DHT22;10524;48.132;8.518;2022-08-19T10:36:28;19.30;99.90
20726;DHT22;10524;48.132;8.518;2022-08-19T10:38:56;19.50;99.90
20726;DHT22;10524;48.132;8.518;2022-08-19T10:41:26;19.70;99.90
20726;DHT22;10524;48.132;8.518;2022-08-19T10:43:55;19.90;99.90
20726;DHT22;10524;48.132;8.518;2022-08-19T10:46:23;19.70;99.90
20726;DHT22;10524;48.132;8.518;2022-08-19T10:48:49;19.80;99.90
20726;DHT22;10524;48.132;8.518;2022-08-19T10:51:15;20.00;99.90
20726;DHT22;10524;48.132;8.518;2022-08-19T10:54:00;20.00;99.90
20726;DHT22;10524;48.132;8.518;2022-08-19T10:56:27;20.10;99.90
20726;DHT22;10524;48.132;8.518;2022-08-19T10:59:12;20.10;99.90
20726;DHT22;10524;48.132;8.518;2022-08-19T11:01:40;20.40;99.90
20726;DHT22;10524;48.132;8.518;2022-08-19T11:04:06;20.70;99.90
20726;DHT22;10524;48.132;8.518;2022-08-19T11:06:36;21.00;99.90
20726;DHT22;10524;48.132;8.518;2022-08-19T11:09:02;21.20;99.90
20726;DHT22;10524;48.132;8.518;2022-08-19T11:11:28;21.30;99.90
20726;DHT22;10524;48.132;8.518;2022-08-19T11:13:54;21.00;99.90
20726;DHT22;10524;48.132;8.518;2022-08-19T11:16:22;21.30;99.90
20726;DHT22;10524;48.132;8.518;2022-08-19T11:18:51;21.60;99.90
20726;DHT22;10524;48.132;8.518;2022-08-19T11:23:45;21.80;99.90
20726;DHT22;10524;48.132;8.518;2022-08-19T11:26:14;21.80;99.90
20726;DHT22;10524;48.132;8.518;2022-08-19T11:28:40;21.70;99.90
20726;DHT22;10524;48.132;8.518;2022-08-19T11:31:18;21.60;99.90
20726;DHT22;10524;48.132;8.518;2022-08-19T11:33:44;21.70;99.90
20726;DHT22;10524;48.132;8.518;2022-08-19T11:36:10;21.50;99.90
20726;DHT22;10524;48.132;8.518;2022-08-19T11:38:37;21.50;99.90
20726;DHT22;10524;48.132;8.518;2022-08-19T11:41:05;21.70;99.90
20726;DHT22;10524;48.132;8.518;2022-08-19T11:43:33;21.60;99.90
20726;DHT22;10524;48.132;8.518;2022-08-19T11:45:58;21.40;99.90
20726;DHT22;10524;48.132;8.518;2022-08-19T11:48:25;21.60;99.90
20726;DHT22;10524;48.132;8.518;2022-08-19T11:50:52;21.90;99.90
20726;DHT22;10524;48.132;8.518;2022-08-19T11:53:20;21.80;99.90
20726;DHT22;10524;48.132;8.518;2022-08-19T11:55:53;21.80;99.90
20726;DHT22;10524;48.132;8.518;2022-08-19T11:58:23;21.50;99.90
20726;DHT22;10524;48.132;8.518;2022-08-19T12:00:51;21.20;99.90
20726;DHT22;10524;48.132;8.518;2022-08-19T12:03:16;21.10;99.90
20726;DHT22;10524;48.132;8.518;2022-08-19T12:05:43;21.40;99.90
20726;DHT22;10524;48.132;8.518;2022-08-19T12:08:09;21.70;99.90
20726;DHT22;10524;48.132;8.518;2022-08-19T12:10:36;22.00;99.90
20726;DHT22;10524;48.132;8.518;2022-08-19T12:13:03;22.20;99.90
20726;DHT22;10524;48.132;8.518;2022-08-19T12:15:29;22.30;99.90
20726;DHT22;10524;48.132;8.518;2022-08-19T12:17:57;22.10;99.90
20726;DHT22;10524;48.132;8.518;2022-08-19T12:20:23;22.00;99.90
20726;DHT22;10524;48.132;8.518;2022-08-19T12:22:51;21.40;99.90
20726;DHT22;10524;48.132;8.518;2022-08-19T12:25:17;21.00;99.90
20726;DHT22;10524;48.132;8.518;2022-08-19T12:27:42;20.90;99.90
20726;DHT22;10524;48.132;8.518;2022-08-19T12:30:11;20.80;99.90
20726;DHT22;10524;48.132;8.518;2022-08-19T12:32:37;20.60;99.90
20726;DHT22;10524;48.132;8.518;2022-08-19T12:35:04;20.50;99.90
20726;DHT22;10524;48.132;8.518;2022-08-19T12:37:30;20.60;99.90
20726;DHT22;10524;48.132;8.518;2022-08-19T12:39:58;20.60;99.90
20726;DHT22;10524;48.132;8.518;2022-08-19T12:42:24;20.50;99.90
20726;DHT22;10524;48.132;8.518;2022-08-19T12:44:50;20.60;99.90
20726;DHT22;10524;48.132;8.518;2022-08-19T12:47:17;20.60;99.90
20726;DHT22;10524;48.132;8.518;2022-08-19T12:49:43;20.50;99.90
20726;DHT22;10524;48.132;8.518;2022-08-19T12:52:10;20.60;99.90
20726;DHT22;10524;48.132;8.518;2022-08-19T12:54:37;20.50;99.90
20726;DHT22;10524;48.132;8.518;2022-08-19T12:57:09;20.50;99.90
20726;DHT22;10524;48.132;8.518;2022-08-19T12:59:36;20.50;99.90
20726;DHT22;10524;48.132;8.518;2022-08-19T13:02:03;20.50;99.90
20726;DHT22;10524;48.132;8.518;2022-08-19T13:04:32;20.40;99.90
20726;DHT22;10524;48.132;8.518;2022-08-19T13:07:00;20.40;99.90
20726;DHT22;10524;48.132;8.518;2022-08-19T13:09:26;20.30;99.90
20726;DHT22;10524;48.132;8.518;2022-08-19T13:11:51;20.30;99.90
20726;DHT22;10524;48.132;8.518;2022-08-19T13:14:17;20.50;99.90
20726;DHT22;10524;48.132;8.518;2022-08-19T13:16:43;20.60;99.90
20726;DHT22;10524;48.132;8.518;2022-08-19T13:19:09;20.60;99.90
20726;DHT22;10524;48.132;8.518;2022-08-19T13:21:36;20.50;99.90
20726;DHT22;10524;48.132;8.518;2022-08-19T13:24:02;20.40;99.90
20726;DHT22;10524;48.132;8.518;2022-08-19T13:26:29;20.40;99.90
20726;DHT22;10524;48.132;8.518;2022-08-19T13:28:54;20.80;99.90
20726;DHT22;10524;48.132;8.518;2022-08-19T13:31:40;21.00;99.90
20726;DHT22;10524;48.132;8.518;2022-08-19T13:34:35;21.30;99.90
20726;DHT22;10524;48.132;8.518;2022-08-19T13:37:03;21.40;99.90
20726;DHT22;10524;48.132;8.518;2022-08-19T13:39:33;21.40;99.90
20726;DHT22;10524;48.132;8.518;2022-08-19T13:42:00;21.40;99.90
20726;DHT22;10524;48.132;8.518;2022-08-19T13:44:27;21.60;99.90
20726;DHT22;10524;48.132;8.518;2022-08-19T13:46:55;21.50;99.90
20726;DHT22;10524;48.132;8.518;2022-08-19T13:49:28;21.50;99.90
20726;DHT22;10524;48.132;8.518;2022-08-19T13:51:56;21.60;99.90
20726;DHT22;10524;48.132;8.518;2022-08-19T13:54:22;21.40;99.90
20726;DHT22;10524;48.132;8.518;2022-08-19T13:56:47;21.30;99.90
20726;DHT22;10524;48.132;8.518;2022-08-19T13:59:13;21.30;99.90
20726;DHT22;10524;48.132;8.518;2022-08-19T14:01:40;21.30;99.90
20726;DHT22;10524;48.132;8.518;2022-08-19T14:04:06;21.10;99.90
20726;DHT22;10524;48.132;8.518;2022-08-19T14:06:33;20.90;99.90
20726;DHT22;10524;48.132;8.518;2022-08-19T14:08:59;20.90;99.90
20726;DHT22;10524;48.132;8.518;2022-08-19T14:11:25;21.00;99.90
20726;DHT22;10524;48.132;8.518;2022-08-19T14:13:51;21.20;99.90
20726;DHT22;10524;48.132;8.518;2022-08-19T14:16:17;21.30;99.90
20726;DHT22;10524;48.132;8.518;2022-08-19T14:18:42;21.60;99.90
20726;DHT22;10524;48.132;8.518;2022-08-19T14:21:15;21.80;99.90
20726;DHT22;10524;48.132;8.518;2022-08-19T14:23:41;21.80;99.90
20726;DHT22;10524;48.132;8.518;2022-08-19T14:26:11;22.00;99.90
20726;DHT22;10524;48.132;8.518;2022-08-19T14:28:37;22.20;99.90
20726;DHT22;10524;48.132;8.518;2022-08-19T14:31:04;22.50;99.90
20726;DHT22;10524;48.132;8.518;2022-08-19T14:33:30;22.70;99.90
20726;DHT22;10524;48.132;8.518;2022-08-19T14:35:57;22.80;99.90
20726;DHT22;10524;48.132;8.518;2022-08-19T14:38:22;22.90;99.90
20726;DHT22;10524;48.132;8.518;2022-08-19T14:40:48;23.30;99.90
20726;DHT22;10524;48.132;8.518;2022-08-19T14:43:14;23.50;99.90
20726;DHT22;10524;48.132;8.518;2022-08-19T14:45:40;23.60;99.90
20726;DHT22;10524;48.132;8.518;2022-08-19T14:48:07;23.80;99.90
20726;DHT22;10524;48.132;8.518;2022-08-19T14:50:35;23.90;99.90
20726;DHT22;10524;48.132;8.518;2022-08-19T14:53:05;23.90;99.90
20726;DHT22;10524;48.132;8.518;2022-08-19T14:55:32;24.00;99.90
20726;DHT22;10524;48.132;8.518;2022-08-19T14:57:58;23.90;99.90
20726;DHT22;10524;48.132;8.518;2022-08-19T15:00:25;23.80;99.90
20726;DHT22;10524;48.132;8.518;2022-08-19T15:02:51;23.60;99.90
20726;DHT22;10524;48.132;8.518;2022-08-19T15:05:18;23.50;99.90
20726;DHT22;10524;48.132;8.518;2022-08-19T15:07:44;23.60;99.90
20726;DHT22;10524;48.132;8.518;2022-08-19T15:10:12;23.80;99.90
20726;DHT22;10524;48.132;8.518;2022-08-19T15:12:39;23.70;99.90
20726;DHT22;10524;48.132;8.518;2022-08-19T15:15:07;23.30;99.90
20726;DHT22;10524;48.132;8.518;2022-08-19T15:17:33;23.10;99.90
20726;DHT22;10524;48.132;8.518;2022-08-19T15:20:00;23.20;99.90
20726;DHT22;10524;48.132;8.518;2022-08-19T15:22:27;23.20;99.90
20726;DHT22;10524;48.132;8.518;2022-08-19T15:24:53;22.80;99.90
20726;DHT22;10524;48.132;8.518;2022-08-19T15:27:19;22.40;99.90
20726;DHT22;10524;48.132;8.518;2022-08-19T15:29:45;22.10;99.90
20726;DHT22;10524;48.132;8.518;2022-08-19T15:32:11;22.00;99.90
20726;DHT22;10524;48.132;8.518;2022-08-19T15:34:36;21.70;99.90
20726;DHT22;10524;48.132;8.518;2022-08-19T15:37:03;21.60;99.90
20726;DHT22;10524;48.132;8.518;2022-08-19T15:39:31;21.50;99.90
20726;DHT22;10524;48.132;8.518;2022-08-19T15:41:57;21.20;99.90
20726;DHT22;10524;48.132;8.518;2022-08-19T15:44:25;21.00;99.90
20726;DHT22;10524;48.132;8.518;2022-08-19T15:46:51;20.90;99.90
20726;DHT22;10524;48.132;8.518;2022-08-19T15:49:17;20.90;99.90